Time;durP1;ratioP1;P1;durP2;ratioP2;P2;SDS_P1;SDS_P2;PMS_P1;PMS_P2;Temp;Humidity;BMP_temperature;BMP_pressure;BME280_temperature;BME280_humidity;BME280_pressure;Samples;Min_cycle;Max_cycle;Signal;HPM_P1;HPM_P2
2022/04/25 00:01:31;;;;;;;23.30;19.32;;;;;;;9.92;88.30;98896.70;2165748;82;27663;-65
2022/04/25 00:04:33;;;;;;;23.57;18.40;;;;;;;9.93;88.30;98898.92;2194552;81;29898;-65
2022/04/25 00:07:35;;;;;;;23.55;19.55;;;;;;;9.91;88.27;98904.36;2195004;81;31577;-65
2022/04/25 00:10:37;;;;;;;23.65;19.20;;;;;;;9.91;88.21;98908.86;2194950;81;33347;-65
2022/04/25 00:13:39;;;;;;;25.88;20.32;;;;;;;9.90;88.32;98912.50;2195147;81;29210;-64
2022/04/25 00:16:41;;;;;;;25.10;20.68;;;;;;;9.89;88.34;98911.63;2195064;81;27642;-65
2022/04/25 00:19:46;;;;;;;39.03;28.87;;;;;;;9.90;88.36;98916.52;2195019;81;29628;-65
2022/04/25 00:22:47;;;;;;;34.10;24.52;;;;;;;9.91;88.42;98918.23;2182928;81;32868;-65
2022/04/25 00:25:49;;;;;;;47.20;35.83;;;;;;;9.86;88.20;98910.03;2173338;81;33969;-64
2022/04/25 00:28:51;;;;;;;47.05;35.73;;;;;;;9.84;88.20;98911.95;2172867;81;29500;-65
2022/04/25 00:31:53;;;;;;;50.08;36.85;;;;;;;9.83;88.28;98916.08;2172842;81;27698;-65
2022/04/25 00:34:54;;;;;;;51.08;37.58;;;;;;;9.84;88.36;98920.47;2173504;81;28672;-65
2022/04/25 00:37:56;;;;;;;53.50;38.90;;;;;;;9.84;88.38;98913.29;2173395;81;32176;-65
2022/04/25 00:40:58;;;;;;;52.50;39.50;;;;;;;9.85;88.44;98915.47;2172944;81;33802;-65
2022/04/25 00:44:00;;;;;;;53.02;38.53;;;;;;;9.84;88.35;98909.77;2172986;81;30590;-65
2022/04/25 00:47:03;;;;;;;54.35;38.67;;;;;;;9.82;88.30;98915.20;2173209;81;27646;-65
2022/04/25 00:50:07;;;;;;;55.38;39.20;;;;;;;9.81;88.34;98909.48;2173309;81;29489;-65
2022/04/25 00:53:09;;;;;;;51.13;37.85;;;;;;;9.79;88.30;98908.73;2173223;81;31772;-65
2022/04/25 00:56:16;;;;;;;54.25;38.75;;;;;;;9.80;88.51;98912.28;2173295;81;33985;-65
2022/04/25 00:59:19;;;;;;;48.90;37.17;;;;;;;9.83;88.57;98912.07;2173153;81;29870;-65
2022/04/25 01:02:21;;;;;;;51.95;36.55;;;;;;;9.83;88.67;98912.07;2173461;81;27601;-65
2022/04/25 01:05:23;;;;;;;51.42;37.17;;;;;;;9.85;88.76;98915.00;2172979;81;29906;-65
2022/04/25 01:08:26;;;;;;;50.43;35.98;;;;;;;9.86;88.71;98914.51;2173414;81;31395;-64
2022/04/25 01:11:28;;;;;;;45.85;35.00;;;;;;;9.88;88.84;98911.25;2172910;81;33448;-65
2022/04/25 01:14:30;;;;;;;49.58;35.85;;;;;;;9.88;88.78;98912.13;2173281;81;30540;-64
2022/04/25 01:17:32;;;;;;;45.38;34.27;;;;;;;9.90;88.88;98918.69;2173351;81;27730;-65
2022/04/25 01:20:34;;;;;;;47.00;33.25;;;;;;;9.91;88.86;98910.20;2173364;81;28483;-64
2022/04/25 01:30:17;;;;;;;34.55;26.52;;;;;;;9.92;88.82;98900.72;2172965;81;29930;-64
2022/04/25 01:33:18;;;;;;;37.93;26.27;;;;;;;9.89;88.69;98896.91;2173476;81;27638;-64
2022/04/25 01:36:24;;;;;;;41.63;26.90;;;;;;;9.87;88.73;98895.70;2173204;81;29856;-64
2022/04/25 01:39:26;;;;;;;36.95;24.47;;;;;;;9.85;88.74;98892.27;2172891;81;31895;-64
2022/04/25 01:42:28;;;;;;;34.23;26.25;;;;;;;9.82;88.62;98899.16;2173211;81;34143;-64
2022/04/25 01:45:30;;;;;;;37.13;26.80;;;;;;;9.80;88.69;98895.73;2173723;81;29856;-64
2022/04/25 01:48:32;;;;;;;35.70;25.68;;;;;;;9.81;88.83;98898.78;2172960;81;27683;-65
2022/04/25 01:51:35;;;;;;;37.50;27.20;;;;;;;9.80;88.75;98905.09;2173261;81;29721;-64
2022/04/25 01:54:37;;;;;;;35.68;26.20;;;;;;;9.81;88.86;98900.12;2173220;81;30992;-65
2022/04/25 01:57:39;;;;;;;37.42;26.15;;;;;;;9.79;88.71;98903.37;2172822;81;33874;-65
2022/04/25 02:00:41;;;;;;;38.48;27.98;;;;;;;9.80;88.94;98897.56;2173203;81;29710;-64
2022/04/25 02:03:43;;;;;;;37.17;27.50;;;;;;;9.80;88.92;98905.09;2172951;81;27666;-64
2022/04/25 02:06:55;;;;;;;33.00;25.80;;;;;;;9.80;88.91;98905.09;2173317;81;29921;-64
2022/04/25 02:10:00;;;;;;;36.13;26.80;;;;;;;9.79;88.86;98910.06;2173197;81;31180;-65
2022/04/25 02:13:10;;;;;;;36.68;26.20;;;;;;;9.80;88.89;98909.60;2173180;81;33830;-65
2022/04/25 02:16:16;;;;;;;34.95;26.85;;;;;;;9.79;88.92;98905.22;2172877;81;29377;-65
2022/04/25 02:19:28;;;;;;;36.10;26.42;;;;;;;9.80;89.06;98910.44;2173281;81;27720;-65
2022/04/25 02:22:35;;;;;;;41.23;27.65;;;;;;;9.81;89.11;98906.81;2177398;81;28861;-65
2022/04/25 02:25:34;;;;;;;37.83;26.40;;;;;;;9.82;89.09;98908.52;2194992;81;31458;-65
2022/04/25 02:28:38;;;;;;;34.75;26.33;;;;;;;9.83;89.11;98902.22;2194282;80;34250;-65
2022/04/25 02:31:40;;;;;;;40.25;27.05;;;;;;;9.82;89.03;98913.88;2194950;81;29327;-65
2022/04/25 02:34:42;;;;;;;33.55;24.82;;;;;;;9.83;89.12;98904.89;2165208;82;27593;-65
2022/04/25 02:37:44;;;;;;;26.23;17.57;;;;;;;9.82;89.08;98909.02;2194417;81;29565;-65
2022/04/25 02:41:04;;;;;;;17.95;13.80;;;;;;;9.81;88.97;98912.66;2194633;81;31095;-65
2022/04/25 02:43:51;;;;;;;14.90;11.70;;;;;;;9.79;89.01;98914.08;2194203;81;33001;-64
2022/04/25 02:46:54;;;;;;;10.75;9.50;;;;;;;9.79;89.02;98909.23;2194291;81;30559;-64
2022/04/25 02:49:56;;;;;;;12.20;8.63;;;;;;;9.71;88.60;98905.74;2194739;81;27690;-64
2022/04/25 02:52:58;;;;;;;12.37;9.15;;;;;;;9.64;88.64;98906.64;2194320;81;29576;-64
2022/04/25 02:56:02;;;;;;;11.18;8.48;;;;;;;9.59;88.61;98914.12;2195014;81;31974;-64
2022/04/25 02:59:04;;;;;;;11.43;8.68;;;;;;;9.52;88.50;98916.35;2194631;81;33038;-64
2022/04/25 03:02:05;;;;;;;9.50;8.50;;;;;;;9.50;88.74;98918.27;2194309;81;30201;-64
2022/04/25 03:05:08;;;;;;;11.57;8.83;;;;;;;9.49;88.86;98920.56;2194625;81;27710;-64
2022/04/25 03:08:11;;;;;;;10.50;8.60;;;;;;;9.51;89.02;98921.81;2194647;81;29937;-64
2022/04/25 03:11:13;;;;;;;11.45;8.18;;;;;;;9.50;88.97;98926.78;2194790;81;31009;-65
2022/04/25 03:14:15;;;;;;;10.10;8.20;;;;;;;9.48;88.89;98933.55;2194838;81;33317;-64
2022/04/25 03:17:17;;;;;;;10.93;8.48;;;;;;;9.47;88.98;98932.33;2194930;81;30504;-65
2022/04/25 03:20:19;;;;;;;8.95;8.05;;;;;;;9.45;88.85;98939.09;2194611;81;27723;-64
2022/04/25 03:23:23;;;;;;;9.88;8.53;;;;;;;9.46;88.93;98942.64;2194444;81;29326;-65
2022/04/25 03:26:25;;;;;;;10.13;8.53;;;;;;;9.46;89.00;98949.33;2194812;81;31054;-65
2022/04/25 03:29:27;;;;;;;10.98;8.80;;;;;;;9.44;88.83;98949.41;2194784;81;33845;-65
2022/04/25 03:32:29;;;;;;;10.45;8.85;;;;;;;9.45;88.90;98952.95;2194852;81;30507;-65
2022/04/25 03:35:32;;;;;;;10.68;8.53;;;;;;;9.38;88.52;98953.84;2195300;81;27632;-64
2022/04/25 03:38:34;;;;;;;9.93;8.23;;;;;;;9.34;88.60;98962.56;2194918;80;29500;-65
2022/04/25 03:41:36;;;;;;;9.78;8.58;;;;;;;9.27;88.46;98961.23;2194492;81;31105;-65
2022/04/25 03:44:38;;;;;;;8.35;7.50;;;;;;;9.26;88.64;98967.08;2195026;81;33903;-66
2022/04/25 03:47:40;;;;;;;8.55;7.62;;;;;;;9.24;88.59;98966.31;2194891;81;29325;-65
2022/04/25 03:50:42;;;;;;;8.08;6.78;;;;;;;9.20;88.51;98967.47;2195070;81;27656;-66
2022/04/25 03:53:44;;;;;;;8.78;7.55;;;;;;;9.17;88.50;98971.67;2194942;81;29737;-64
2022/04/25 04:00:08;;;;;;;9.60;8.60;;;;;;;9.08;88.05;98978.97;2194514;81;33561;-66
2022/04/25 04:03:12;;;;;;;10.70;8.98;;;;;;;9.02;87.88;98981.52;2194904;81;30362;-63
2022/04/25 04:06:13;;;;;;;10.95;9.68;;;;;;;8.97;87.84;98988.51;2194723;81;27695;-65
2022/04/25 04:12:36;;;;;;;11.40;9.50;;;;;;;8.90;87.62;98997.89;2194480;81;33101;-65
2022/04/25 04:15:38;;;;;;;11.22;9.75;;;;;;;8.84;87.54;98996.09;2194856;81;33367;-65
2022/04/25 04:18:41;;;;;;;15.68;10.20;;;;;;;8.78;87.50;98999.52;2194441;81;30523;-65
2022/04/25 04:21:43;;;;;;;11.88;10.15;;;;;;;8.76;87.56;99001.91;2194534;81;27687;-65
2022/04/25 04:24:46;;;;;;;10.60;9.60;;;;;;;8.76;87.59;99008.10;2159944;81;29915;-65
2022/04/25 04:27:49;;;;;;;10.38;9.28;;;;;;;8.72;87.43;99014.58;2109018;84;31113;-65
2022/04/25 04:30:51;;;;;;;10.75;8.55;;;;;;;8.70;87.44;99024.49;2118071;84;33363;-65
2022/04/25 04:33:53;;;;;;;11.95;9.08;;;;;;;8.68;87.39;99021.09;2118111;84;29682;-65
2022/04/25 04:36:55;;;;;;;9.80;8.68;;;;;;;8.65;87.32;99030.12;2147407;82;27575;-64
2022/04/25 04:43:17;;;;;;;11.20;8.93;;;;;;;8.60;87.29;99043.38;2146959;82;32219;-64
2022/04/25 04:46:19;;;;;;;9.63;8.63;;;;;;;8.59;87.30;99047.00;2147351;82;33979;-65
2022/04/25 04:49:21;;;;;;;9.63;7.90;;;;;;;8.58;87.28;99054.17;2146779;82;30177;-65
2022/04/25 04:52:23;;;;;;;9.48;8.20;;;;;;;8.59;87.28;99053.67;2147015;82;27716;-65
2022/04/25 04:55:27;;;;;;;8.75;7.87;;;;;;;8.58;87.28;99052.84;2146551;82;29546;-65
2022/04/25 04:58:29;;;;;;;10.15;7.42;;;;;;;8.60;87.28;99055.40;2147067;82;31795;-64
2022/04/25 05:01:31;;;;;;;9.15;7.55;;;;;;;8.57;87.11;99053.78;2147090;82;32400;-65
2022/04/25 05:04:33;;;;;;;10.40;7.53;;;;;;;8.57;87.21;99059.12;2146767;82;30187;-64
2022/04/25 05:07:35;;;;;;;8.38;7.47;;;;;;;8.59;87.13;99067.91;2147523;82;27567;-65
2022/04/25 05:10:37;;;;;;;10.48;7.05;;;;;;;8.56;87.13;99064.08;2146943;82;29916;-62
2022/04/25 05:13:40;;;;;;;8.03;7.22;;;;;;;8.56;87.07;99073.88;2146684;82;32283;-62
2022/04/25 05:16:41;;;;;;;8.55;7.75;;;;;;;8.54;86.98;99076.66;2147061;82;32762;-63
2022/04/25 05:19:43;;;;;;;8.63;7.72;;;;;;;8.51;87.03;99084.39;2147106;82;30484;-63
2022/04/25 05:22:47;;;;;;;10.23;7.35;;;;;;;8.51;86.96;99094.19;2146867;82;27664;-63
2022/04/25 05:25:49;;;;;;;8.75;7.10;;;;;;;8.47;86.89;99090.83;2172245;81;29515;-64
2022/04/25 05:28:51;;;;;;;9.60;7.42;;;;;;;8.46;86.99;99085.09;2131026;83;31084;-63
2022/04/25 05:31:54;;;;;;;8.48;7.33;;;;;;;8.44;86.94;99096.83;2135756;83;34204;-63
2022/04/25 05:34:56;;;;;;;8.50;7.55;;;;;;;8.42;86.91;99098.73;2153867;82;29419;-64
2022/04/25 05:37:58;;;;;;;10.08;7.85;;;;;;;8.42;86.93;99092.06;2131088;83;27706;-64
2022/04/25 05:41:01;;;;;;;10.25;7.30;;;;;;;8.40;86.93;99104.14;2153648;82;29655;-64
2022/04/25 05:44:04;;;;;;;8.98;7.10;;;;;;;8.42;86.91;99108.91;2145043;82;30468;-65
2022/04/25 05:47:06;;;;;;;7.45;6.12;;;;;;;8.40;86.78;99108.63;2135521;83;33781;-65
2022/04/25 05:53:30;;;;;;;8.23;7.42;;;;;;;8.40;86.77;99124.64;2169964;82;27679;-63
2022/04/25 05:56:32;;;;;;;12.55;10.13;;;;;;;8.42;86.76;99124.92;2153988;82;28854;-63
2022/04/25 05:59:35;;;;;;;10.25;9.18;;;;;;;8.45;86.93;99127.42;2131101;83;31041;-63
2022/04/25 06:02:41;;;;;;;9.95;8.88;;;;;;;8.45;86.77;99134.55;2153496;82;35089;-64
2022/04/25 06:05:45;;;;;;;9.98;8.68;;;;;;;8.48;86.84;99138.41;2131036;83;29342;-63
2022/04/25 06:08:47;;;;;;;13.08;9.23;;;;;;;8.51;86.83;99139.11;2154033;82;27680;-65
2022/04/25 06:11:49;;;;;;;12.58;9.98;;;;;;;8.52;86.59;99146.63;2131052;83;28844;-63
2022/04/25 06:14:58;;;;;;;10.28;9.03;;;;;;;8.53;86.44;99138.13;2153832;82;32306;-63
2022/04/25 06:18:00;;;;;;;11.55;8.28;;;;;;;8.52;86.38;99142.62;2144787;82;34006;-66
2022/04/25 06:21:03;;;;;;;10.38;8.35;;;;;;;8.49;86.08;99154.81;2135748;83;29997;-64
2022/04/25 06:24:06;;;;;;;10.30;9.15;;;;;;;8.46;86.09;99151.83;2156833;82;27581;-63
2022/04/25 06:27:09;;;;;;;10.60;9.30;;;;;;;8.44;86.02;99156.88;2126187;83;29544;-64
2022/04/25 06:30:13;;;;;;;10.68;8.53;;;;;;;8.45;86.20;99154.11;2194654;81;31088;-63
2022/04/25 06:33:15;;;;;;;9.23;8.23;;;;;;;8.49;86.26;99161.48;2194747;81;33034;-63
2022/04/25 06:36:18;;;;;;;13.00;8.83;;;;;;;8.50;86.01;99160.08;2194356;81;30549;-64
2022/04/25 06:39:19;;;;;;;9.23;7.67;;;;;;;8.48;85.81;99168.64;2194805;81;27692;-62
2022/04/25 06:42:23;;;;;;;9.40;8.48;;;;;;;8.47;85.87;99164.68;2194639;81;28135;-63
2022/04/25 06:45:26;;;;;;;8.93;7.80;;;;;;;8.46;85.71;99162.50;2194722;81;30471;-63
2022/04/25 06:48:28;;;;;;;8.68;7.87;;;;;;;8.44;85.59;99165.73;2194235;81;34338;-63
2022/04/25 06:51:30;;;;;;;11.45;8.55;;;;;;;8.43;85.49;99166.68;2194237;81;30777;-62
2022/04/25 06:54:35;;;;;;;10.03;8.70;;;;;;;8.44;85.55;99173.73;2194717;81;27676;-63
2022/04/25 06:57:37;;;;;;;9.83;8.35;;;;;;;8.43;85.49;99174.69;2194310;81;29481;-66
2022/04/25 07:00:40;;;;;;;9.73;8.73;;;;;;;8.49;85.70;99178.37;2194216;81;31890;-64
2022/04/25 07:03:42;;;;;;;10.13;9.08;;;;;;;8.53;85.44;99180.83;2194542;81;33469;-65
2022/04/25 07:06:45;;;;;;;11.10;9.65;;;;;;;8.52;85.27;99183.99;2194591;81;29739;-64
2022/04/25 07:09:47;;;;;;;13.58;10.15;;;;;;;8.51;85.21;99183.61;2194726;81;27625;-62
2022/04/25 07:12:49;;;;;;;10.58;9.45;;;;;;;8.48;85.14;99194.00;2194236;81;29873;-63
2022/04/25 07:15:51;;;;;;;12.30;10.82;;;;;;;8.49;85.18;99202.39;2194304;81;31900;-62
2022/04/25 07:18:54;;;;;;;12.10;10.58;;;;;;;8.41;84.92;99195.75;2165076;82;33815;-63
2022/04/25 07:28:51;;;;;;;15.10;12.65;;;;;;;8.43;85.00;99213.38;2172946;81;29957;-63
2022/04/25 07:31:53;;;;;;;17.07;12.23;;;;;;;8.45;85.11;99216.83;2173487;81;31383;-62
2022/04/25 07:34:56;;;;;;;13.98;12.53;;;;;;;8.39;84.71;99223.84;2172748;81;33809;-64
2022/04/25 07:37:58;;;;;;;14.18;12.20;;;;;;;8.38;84.86;99230.13;2172749;81;30549;-67
2022/04/25 07:41:01;;;;;;;13.22;11.73;;;;;;;8.35;84.73;99231.18;2172846;81;27645;-65
2022/04/25 07:44:04;;;;;;;14.70;12.13;;;;;;;8.33;84.69;99240.23;2172792;81;29951;-64
2022/04/25 07:47:09;;;;;;;13.80;11.90;;;;;;;8.31;84.75;99240.79;2173066;81;31015;-64
2022/04/25 07:50:11;;;;;;;11.85;9.30;;;;;;;8.30;84.66;99248.41;2173413;81;32959;-65
2022/04/25 07:53:14;;;;;;;13.22;11.75;;;;;;;8.28;84.68;99253.81;2172725;81;30050;-66
2022/04/25 07:56:17;;;;;;;13.45;11.48;;;;;;;8.27;84.60;99249.91;2173080;81;27666;-67
2022/04/25 07:59:19;;;;;;;14.30;11.88;;;;;;;8.29;84.73;99257.36;2172843;81;29456;-68
2022/04/25 08:02:23;;;;;;;13.00;11.70;;;;;;;8.31;84.71;99260.31;2172565;81;31882;-67
2022/04/25 08:05:26;;;;;;;16.90;13.10;;;;;;;8.32;84.68;99264.70;2172967;81;34268;-65
2022/04/25 08:08:28;;;;;;;14.90;13.30;;;;;;;8.39;84.82;99267.03;2166455;81;29340;-65
2022/04/25 08:11:30;;;;;;;15.65;12.93;;;;;;;8.45;84.59;99270.66;2173204;81;27661;-63
2022/04/25 08:18:04;;;;;;;13.78;12.20;;;;;;;8.51;84.62;99279.24;2173058;81;31894;-62
2022/04/25 08:21:06;;;;;;;15.13;12.88;;;;;;;8.59;84.72;99283.26;2172853;81;33869;-64
2022/04/25 08:24:09;;;;;;;14.68;13.08;;;;;;;8.56;84.47;99272.75;2172752;81;30197;-66
2022/04/25 08:27:14;;;;;;;16.67;13.35;;;;;;;8.67;84.37;99293.03;2172931;81;27606;-64
2022/04/25 08:30:17;;;;;;;14.85;13.03;;;;;;;8.69;84.31;99292.45;2175523;81;28712;-66
2022/04/25 08:33:22;;;;;;;15.35;13.45;;;;;;;8.73;84.25;99296.66;2175403;80;31623;-64
2022/04/25 08:36:24;;;;;;;14.68;13.18;;;;;;;8.77;84.44;99296.03;2175191;81;33577;-65
2022/04/25 08:39:26;;;;;;;13.93;12.43;;;;;;;8.85;84.55;99300.44;2175038;81;30187;-66
2022/04/25 08:42:29;;;;;;;15.75;13.70;;;;;;;8.86;83.73;99306.62;2175894;81;27739;-66
2022/04/25 08:45:32;;;;;;;14.60;12.70;;;;;;;8.83;83.68;99307.67;2150915;81;29690;-64
2022/04/25 08:48:35;;;;;;;14.68;13.05;;;;;;;8.85;83.68;99309.78;2175407;81;31089;-65
2022/04/25 08:51:38;;;;;;;13.35;11.95;;;;;;;8.88;83.88;99313.61;2175346;81;33848;-63
2022/04/25 08:54:40;;;;;;;12.80;11.48;;;;;;;8.90;83.64;99321.52;2175130;81;30481;-62
2022/04/25 08:57:44;;;;;;;12.50;11.20;;;;;;;8.93;83.84;99327.57;2175595;81;27603;-63
2022/04/25 09:00:47;;;;;;;9.10;8.13;;;;;;;8.94;83.58;99335.09;2175708;81;28720;-67
2022/04/25 09:03:49;;;;;;;11.90;10.55;;;;;;;8.92;83.24;99339.20;2175206;81;31722;-67
2022/04/25 09:06:51;;;;;;;12.47;11.18;;;;;;;8.89;83.20;99346.52;2175338;81;33777;-65
2022/04/25 09:09:54;;;;;;;11.78;10.58;;;;;;;8.83;83.12;99350.89;2175109;81;30321;-66
2022/04/25 09:12:58;;;;;;;11.65;10.43;;;;;;;8.77;83.01;99352.11;2174947;81;27812;-64
2022/04/25 09:16:05;;;;;;;14.93;11.20;;;;;;;8.76;83.17;99359.73;2098390;84;29011;-63
2022/04/25 09:19:08;;;;;;;11.75;10.55;;;;;;;8.77;83.34;99362.80;2098422;84;31035;-63
2022/04/25 09:22:17;;;;;;;12.68;10.00;;;;;;;8.76;83.20;99362.41;2098035;84;33829;-64
2022/04/25 09:25:20;;;;;;;9.90;8.93;;;;;;;8.76;83.14;99366.41;2103594;84;30651;-63
2022/04/25 09:28:23;;;;;;;10.08;9.05;;;;;;;8.74;82.97;99377.16;2118462;84;27736;-64
2022/04/25 09:31:25;;;;;;;11.22;9.58;;;;;;;8.70;82.82;99374.77;2118940;84;29077;-63
2022/04/25 09:37:49;;;;;;;10.25;9.25;;;;;;;8.65;83.14;99385.22;2117912;84;34406;-62
2022/04/25 09:40:52;;;;;;;10.82;9.70;;;;;;;8.70;83.24;99396.12;2118131;84;30836;-62
2022/04/25 09:43:58;;;;;;;11.00;9.83;;;;;;;8.74;83.29;99395.01;2118043;84;27716;-65
2022/04/25 09:47:00;;;;;;;12.00;10.32;;;;;;;8.76;83.16;99389.95;2161071;81;28711;-64
2022/04/25 09:50:15;;;;;;;12.58;10.23;;;;;;;8.78;83.22;99397.41;2164690;82;32113;-63
2022/04/25 09:53:17;;;;;;;11.75;9.68;;;;;;;8.83;82.96;99406.98;2194175;81;34232;-63
2022/04/25 09:56:30;;;;;;;10.60;9.23;;;;;;;8.80;82.75;99411.54;2194223;81;31016;-62
2022/04/25 09:59:44;;;;;;;13.68;10.48;;;;;;;8.85;83.05;99412.61;2194358;81;27724;-61
2022/04/25 10:02:47;;;;;;;14.05;10.98;;;;;;;8.86;82.91;99410.78;2194431;81;29652;-62
2022/04/25 10:05:54;;;;;;;14.87;12.37;;;;;;;8.88;82.91;99412.44;2165087;82;32094;-63
2022/04/25 10:08:57;;;;;;;16.77;13.95;;;;;;;8.92;83.06;99411.33;2194135;81;34459;-62
2022/04/25 10:12:03;;;;;;;17.50;14.50;;;;;;;8.95;82.91;99421.80;2194625;81;29620;-63
2022/04/25 10:15:08;;;;;;;16.32;14.63;;;;;;;8.95;82.74;99424.97;2190369;81;27922;-64
2022/04/25 10:18:19;;;;;;;20.85;15.58;;;;;;;8.95;82.83;99427.64;2194976;79;28658;-62
2022/04/25 10:21:24;;;;;;;19.80;16.52;;;;;;;9.00;83.03;99428.70;2191856;81;31080;-64
2022/04/25 10:24:26;;;;;;;17.95;15.75;;;;;;;9.02;83.07;99426.32;2194555;81;32950;-62
2022/04/25 10:27:32;;;;;;;20.30;17.35;;;;;;;9.03;83.01;99432.05;2149076;82;30417;-62
2022/04/25 10:30:36;;;;;;;19.50;17.17;;;;;;;9.00;82.66;99432.25;2110844;84;27713;-62
2022/04/25 10:33:51;;;;;;;20.88;17.65;;;;;;;9.01;82.85;99437.98;2112744;84;28725;-63
2022/04/25 10:36:53;;;;;;;21.40;17.35;;;;;;;9.05;82.62;99438.66;2126359;83;31015;-64
2022/04/25 10:39:56;;;;;;;22.40;17.45;;;;;;;9.07;82.94;99439.44;2140431;82;34216;-63
2022/04/25 10:47:09;;;;;;;22.00;17.48;;;;;;;9.06;82.58;99460.42;2125897;83;27633;-61
2022/04/25 10:50:12;;;;;;;20.02;16.85;;;;;;;9.03;82.53;99465.45;2125273;83;28012;-65
2022/04/25 10:53:14;;;;;;;23.55;18.42;;;;;;;9.04;82.83;99467.17;2125741;83;32310;-66
2022/04/25 10:56:16;;;;;;;20.25;16.90;;;;;;;9.05;82.56;99472.06;2126034;83;33423;-63
2022/04/25 10:59:26;;;;;;;20.02;17.30;;;;;;;9.03;82.40;99470.79;2126102;83;30238;-63
2022/04/25 11:02:29;;;;;;;22.52;18.12;;;;;;;9.03;82.46;99470.79;2126286;83;27679;-63
2022/04/25 11:05:36;;;;;;;24.47;19.00;;;;;;;9.09;82.73;99477.13;2125737;83;29578;-63
2022/04/25 11:08:39;;;;;;;30.00;20.32;;;;;;;9.14;82.92;99480.02;2126093;83;31075;-64
2022/04/25 11:11:51;;;;;;;23.57;19.70;;;;;;;9.18;82.68;99478.42;2126029;83;32967;-65
2022/04/25 11:15:02;;;;;;;22.90;18.80;;;;;;;9.20;82.38;99490.34;2126162;83;29646;-63
2022/04/25 11:18:35;;;;;;;23.73;18.55;;;;;;;9.18;82.31;99490.94;2126322;83;28231;-62
2022/04/25 11:21:49;;;;;;;23.80;18.48;;;;;;;9.20;82.46;99499.70;2154986;82;27644;-62
2022/04/25 11:24:51;;;;;;;21.75;18.87;;;;;;;9.24;82.62;99498.13;2126170;83;31091;-62
2022/04/25 11:28:10;;;;;;;24.95;19.85;;;;;;;9.37;82.91;99510.78;2125755;82;33888;-62
2022/04/25 11:31:21;;;;;;;23.70;19.25;;;;;;;9.46;82.74;99508.89;2112640;84;29659;-62
2022/04/25 11:34:24;;;;;;;25.60;19.45;;;;;;;9.50;82.58;99520.30;2125883;83;27811;-63
2022/04/25 11:37:28;;;;;;;25.15;20.17;;;;;;;9.51;82.07;99516.67;2156689;82;28671;-62
2022/04/25 11:40:30;;;;;;;24.30;19.25;;;;;;;9.48;82.09;99529.72;2126391;83;31192;-62
2022/04/25 11:43:33;;;;;;;24.63;18.55;;;;;;;9.46;81.95;99530.28;2125955;83;33410;-62
2022/04/25 11:46:38;;;;;;;22.10;18.82;;;;;;;9.46;81.68;99533.45;2126439;83;29103;-63
2022/04/25 11:49:40;;;;;;;25.77;18.80;;;;;;;9.43;81.74;99538.02;2126683;83;27808;-63
2022/04/25 11:52:48;;;;;;;24.32;18.57;;;;;;;9.49;81.89;99536.80;2126405;83;28670;-63
2022/04/25 11:55:51;;;;;;;24.18;20.08;;;;;;;9.51;81.84;99541.58;2112850;82;31104;-63
2022/04/25 11:58:55;;;;;;;26.27;21.15;;;;;;;9.58;82.05;99544.30;2126246;83;33786;-63
2022/04/25 12:02:00;;;;;;;30.52;21.62;;;;;;;9.56;81.57;99548.88;2125847;83;27701;-63
2022/04/25 12:05:04;;;;;;;32.85;24.18;;;;;;;9.54;81.52;99550.77;2126455;83;27748;-64
2022/04/25 12:18:27;;;;;;;25.90;21.45;;;;;;;9.74;81.59;99560.80;2126016;83;30846;-63
2022/04/25 12:21:30;;;;;;;30.05;22.52;;;;;;;9.72;81.04;99568.05;2126403;83;27904;-63
2022/04/25 12:24:32;;;;;;;27.73;21.68;;;;;;;9.66;81.13;99575.08;2126292;83;28899;-64
2022/04/25 12:27:34;;;;;;;32.28;24.25;;;;;;;9.62;81.04;99578.87;2147844;81;31304;-63
2022/04/25 12:31:00;;;;;;;31.68;25.10;;;;;;;9.58;81.17;99582.20;2194895;80;33932;-63
2022/04/25 12:34:07;;;;;;;31.07;24.65;;;;;;;9.54;81.05;99586.87;2165340;82;29697;-63
2022/04/25 12:37:11;;;;;;;30.55;25.02;;;;;;;9.49;81.10;99590.76;2194917;81;28258;-61
2022/04/25 12:40:13;;;;;;;30.82;25.85;;;;;;;9.46;81.15;99591.78;2194651;81;28215;-63
2022/04/25 12:43:39;;;;;;;32.35;26.60;;;;;;;9.48;81.30;99597.05;2194342;81;31925;-63
2022/04/25 12:46:52;;;;;;;34.95;26.65;;;;;;;9.52;81.36;99603.47;2194746;81;33974;-62
2022/04/25 12:49:54;;;;;;;29.27;24.57;;;;;;;9.53;81.20;99602.98;2194777;81;29739;-63
2022/04/25 12:52:57;;;;;;;32.38;25.32;;;;;;;9.51;80.73;99605.75;2194423;81;27753;-62
2022/04/25 12:56:00;;;;;;;31.60;24.80;;;;;;;9.52;80.68;99609.28;2194791;81;28684;-63
2022/04/25 12:59:03;;;;;;;29.65;25.32;;;;;;;9.54;80.66;99606.92;2194403;81;31861;-62
2022/04/25 13:02:14;;;;;;;33.58;26.57;;;;;;;9.55;80.79;99615.34;2165492;82;33330;-62
2022/04/25 13:05:17;;;;;;;33.42;26.75;;;;;;;9.58;80.64;99613.83;2194642;81;29640;-62
2022/04/25 13:08:21;;;;;;;29.92;23.47;;;;;;;9.68;80.94;99611.95;2165514;82;27774;-63
2022/04/25 13:11:23;;;;;;;28.90;22.23;;;;;;;9.76;80.63;99615.07;2194919;81;28669;-62
2022/04/25 13:14:26;;;;;;;26.23;21.90;;;;;;;9.74;80.14;99618.30;2194273;81;31977;-64
2022/04/25 13:17:28;;;;;;;24.55;21.95;;;;;;;9.75;80.03;99624.50;2194426;81;33128;-62
2022/04/25 13:20:31;;;;;;;26.00;21.10;;;;;;;9.78;80.03;99623.84;2194282;81;30829;-62
2022/04/25 13:23:36;;;;;;;24.65;21.33;;;;;;;9.83;79.84;99630.29;2194416;81;27671;-62
2022/04/25 13:26:38;;;;;;;26.62;20.95;;;;;;;9.93;80.15;99628.80;2159817;82;28343;-62
2022/04/25 13:29:41;;;;;;;23.83;19.12;;;;;;;9.98;79.88;99629.86;2110423;84;31114;-66
2022/04/25 13:32:44;;;;;;;23.75;19.48;;;;;;;10.00;79.61;99635.53;2112150;84;34208;-63
2022/04/25 13:35:46;;;;;;;23.47;18.15;;;;;;;10.04;79.65;99639.73;2125605;83;30675;-62
2022/04/25 13:38:49;;;;;;;20.62;16.65;;;;;;;10.09;79.37;99645.30;2126294;83;27646;-64
2022/04/25 13:41:55;;;;;;;20.88;17.20;;;;;;;10.10;79.21;99643.86;2125865;83;28773;-65
2022/04/25 13:45:01;;;;;;;23.65;19.37;;;;;;;10.09;79.23;99650.19;2126222;83;30998;-64
2022/04/25 13:48:04;;;;;;;32.08;20.32;;;;;;;10.09;79.04;99654.66;2126209;83;33047;-64
2022/04/25 13:51:07;;;;;;;28.17;20.43;;;;;;;10.04;78.95;99653.59;2126218;83;29628;-64
2022/04/25 13:54:10;;;;;;;21.82;18.12;;;;;;;10.01;79.22;99661.31;2126288;83;27678;-64
2022/04/25 13:57:13;;;;;;;22.85;17.92;;;;;;;9.97;79.05;99663.80;2125869;83;28766;-64
2022/04/25 14:00:16;;;;;;;20.88;15.15;;;;;;;9.97;79.11;99670.95;2107936;83;31031;-63
2022/04/25 14:03:18;;;;;;;20.70;15.28;;;;;;;9.99;79.12;99675.28;2126155;83;32968;-65
2022/04/25 14:06:20;;;;;;;26.37;17.60;;;;;;;9.97;78.96;99677.17;2126209;83;29876;-63
2022/04/25 14:09:23;;;;;;;19.35;16.20;;;;;;;10.00;79.14;99677.47;2125964;83;27673;-64
2022/04/25 14:12:25;;;;;;;21.80;17.62;;;;;;;10.03;79.33;99687.51;2125890;83;29193;-65
2022/04/25 14:15:27;;;;;;;25.15;17.73;;;;;;;10.08;79.47;99693.08;2125797;83;32274;-64
2022/04/25 14:18:30;;;;;;;21.52;17.55;;;;;;;10.11;79.31;99691.08;2125908;83;34177;-65
2022/04/25 14:21:33;;;;;;;21.70;17.20;;;;;;;10.10;79.23;99699.21;2126012;83;30597;-65
2022/04/25 14:24:35;;;;;;;22.32;17.92;;;;;;;10.10;79.37;99700.06;2126043;83;27709;-65
2022/04/25 14:27:40;;;;;;;27.93;18.48;;;;;;;10.10;79.41;99706.75;2125506;82;30022;-64
2022/04/25 14:30:42;;;;;;;25.45;17.10;;;;;;;10.04;79.06;99709.80;2112182;84;31992;-64
2022/04/25 14:33:45;;;;;;;21.12;17.98;;;;;;;9.98;79.02;99712.81;2126075;83;33325;-63
2022/04/25 14:36:48;;;;;;;28.00;21.52;;;;;;;9.93;79.15;99714.91;2126123;83;30453;-65
2022/04/25 14:39:50;;;;;;;27.15;18.35;;;;;;;9.89;79.21;99718.20;2125956;83;27743;-62
2022/04/25 14:42:53;;;;;;;22.90;18.05;;;;;;;9.85;79.33;99716.19;2125917;83;29075;-64
2022/04/25 14:45:55;;;;;;;21.37;16.65;;;;;;;9.82;79.33;99716.36;2126226;83;30766;-66
2022/04/25 14:48:58;;;;;;;18.73;15.28;;;;;;;9.84;79.21;99721.15;2126160;83;33353;-66
2022/04/25 14:55:22;;;;;;;25.90;18.45;;;;;;;9.84;79.08;99719.81;2126164;83;27610;-64
2022/04/25 14:58:24;;;;;;;25.00;18.95;;;;;;;9.91;79.38;99731.52;2125810;83;29893;-64
2022/04/25 15:01:27;;;;;;;35.60;22.98;;;;;;;9.94;79.32;99728.64;2125668;83;32378;-63
2022/04/25 15:04:29;;;;;;;30.82;22.62;;;;;;;9.97;79.28;99736.05;2125791;83;34263;-64
2022/04/25 15:07:31;;;;;;;29.12;22.80;;;;;;;10.02;79.34;99742.47;2126107;83;30111;-64
2022/04/25 15:10:33;;;;;;;25.37;20.62;;;;;;;10.06;79.40;99734.66;2125996;83;27711;-65